Time;durP1;ratioP1;P1;durP2;ratioP2;P2;SDS_P1;SDS_P2;PMS_P1;PMS_P2;Temp;Humidity;BMP_temperature;BMP_pressure;BME280_temperature;BME280_humidity;BME280_pressure;Samples;Min_cycle;Max_cycle;Signal;HPM_P1;HPM_P2
2023/08/11 00:00:04;;;;;;;2.60;2.40;;;;;;;12.36;100.00;99939.69;6039791;23;20224;-78
2023/08/11 00:02:37;;;;;;;2.70;2.50;;;;;;;12.36;100.00;99942.38;6040026;23;20160;-77
2023/08/11 00:05:05;;;;;;;2.67;2.43;;;;;;;12.37;100.00;99935.94;6039845;23;20173;-77
2023/08/11 00:07:33;;;;;;;2.40;2.20;;;;;;;12.32;100.00;99938.47;6040064;23;20193;-79
2023/08/11 00:10:00;;;;;;;2.60;2.40;;;;;;;12.28;100.00;99937.28;6015165;23;20551;-78
2023/08/11 00:12:26;;;;;;;2.50;2.30;;;;;;;12.27;100.00;99938.34;6040442;23;20164;-78
2023/08/11 00:14:53;;;;;;;3.50;2.30;;;;;;;12.25;100.00;99935.03;6040412;23;20173;-78
2023/08/11 00:17:21;;;;;;;2.40;2.23;;;;;;;12.27;100.00;99932.97;6040287;23;20175;-78
2023/08/11 00:19:47;;;;;;;2.37;2.17;;;;;;;12.26;100.00;99934.84;6040305;23;20169;-79
2023/08/11 00:22:14;;;;;;;2.60;2.40;;;;;;;12.22;100.00;99938.19;6040212;23;20197;-78
2023/08/11 00:24:41;;;;;;;2.60;2.40;;;;;;;12.22;100.00;99938.19;6040083;23;20175;-78
2023/08/11 00:27:07;;;;;;;2.60;2.40;;;;;;;12.20;100.00;99933.03;6039919;23;20187;-79
2023/08/11 00:29:34;;;;;;;2.27;2.17;;;;;;;12.22;100.00;99935.50;6039766;23;20545;-78
2023/08/11 00:32:01;;;;;;;2.60;2.37;;;;;;;12.24;100.00;99931.53;6039696;23;20197;-78
2023/08/11 00:34:28;;;;;;;2.53;2.30;;;;;;;12.21;100.00;99931.16;6039930;23;20225;-78
2023/08/11 00:36:57;;;;;;;2.43;2.23;;;;;;;12.21;100.00;99925.78;6039996;23;20220;-78
2023/08/11 00:39:24;;;;;;;2.93;2.20;;;;;;;12.19;100.00;99936.75;6039976;23;20221;-78
2023/08/11 00:41:50;;;;;;;2.77;2.50;;;;;;;12.19;100.00;99933.25;6039809;23;20187;-79
2023/08/11 00:44:17;;;;;;;2.60;2.40;;;;;;;12.16;100.00;99922.94;6014580;23;20184;-79
2023/08/11 00:46:45;;;;;;;2.70;2.50;;;;;;;12.12;100.00;99929.81;6014577;23;20251;-78
2023/08/11 00:49:13;;;;;;;3.20;2.90;;;;;;;12.15;100.00;99926.66;6039971;23;20236;-77
2023/08/11 00:51:40;;;;;;;2.80;2.60;;;;;;;12.07;100.00;99925.13;6039623;23;20172;-78
2023/08/11 00:54:08;;;;;;;2.70;2.50;;;;;;;12.08;100.00;99925.94;6039432;23;20177;-78
2023/08/11 00:56:35;;;;;;;3.03;2.30;;;;;;;12.10;100.00;99931.88;6014551;23;20169;-77
2023/08/11 00:59:03;;;;;;;2.83;2.50;;;;;;;12.10;100.00;99930.03;6013958;23;20176;-78
2023/08/11 01:01:29;;;;;;;3.03;2.40;;;;;;;12.11;100.00;99928.16;6039273;23;20221;-76
2023/08/11 01:03:57;;;;;;;3.07;2.30;;;;;;;12.07;100.00;99935.84;6039053;23;20220;-77
2023/08/11 01:06:42;;;;;;;2.30;2.10;;;;;;;12.10;100.00;99924.66;6039214;23;20483;-76
2023/08/11 01:09:28;;;;;;;4.27;2.20;;;;;;;12.10;100.00;99931.88;6039536;23;20151;-77
2023/08/11 01:12:20;;;;;;;2.40;2.20;;;;;;;12.07;100.00;99932.34;6039120;23;20235;-78
2023/08/11 01:15:18;;;;;;;3.00;2.77;;;;;;;12.10;100.00;99929.19;6039060;23;20156;-76
2023/08/11 01:17:45;;;;;;;3.20;2.77;;;;;;;12.05;100.00;99935.25;6039578;23;20171;-77
2023/08/11 01:20:15;;;;;;;3.23;2.90;;;;;;;12.00;100.00;99934.25;6014293;23;20172;-78
2023/08/11 01:22:47;;;;;;;3.40;2.77;;;;;;;11.97;100.00;99934.72;6037615;23;20250;-77
2023/08/11 01:25:14;;;;;;;4.27;2.80;;;;;;;11.88;100.00;99928.81;6038992;23;20183;-77
2023/08/11 01:28:03;;;;;;;3.50;3.10;;;;;;;11.87;100.00;99927.16;6038960;23;20259;-77
2023/08/11 01:30:30;;;;;;;3.30;3.00;;;;;;;11.87;100.00;99932.53;6039017;23;20167;-77
2023/08/11 01:32:57;;;;;;;3.47;3.17;;;;;;;11.79;100.00;99936.31;6009087;23;20198;-78
2023/08/11 01:35:24;;;;;;;4.13;2.70;;;;;;;11.77;100.00;99933.03;6010544;23;20200;-77
2023/08/11 01:38:04;;;;;;;2.90;2.70;;;;;;;11.78;100.00;99937.34;6009195;23;20246;-77
2023/08/11 01:40:31;;;;;;;3.40;3.10;;;;;;;11.73;100.00;99922.94;6009113;23;20192;-77
2023/08/11 01:43:01;;;;;;;2.90;2.70;;;;;;;11.77;100.00;99929.50;6009124;23;20166;-77
2023/08/11 01:45:28;;;;;;;3.27;3.07;;;;;;;11.72;100.00;99932.00;6009304;23;20240;-77
2023/08/11 01:47:55;;;;;;;3.40;3.10;;;;;;;11.70;100.00;99926.03;6010345;23;20188;-77
2023/08/11 01:50:23;;;;;;;4.13;2.70;;;;;;;11.73;100.00;99931.81;6010321;23;20175;-76
2023/08/11 01:52:52;;;;;;;2.90;2.70;;;;;;;11.71;100.00;99931.19;6009094;23;20179;-77
2023/08/11 01:55:19;;;;;;;3.00;2.80;;;;;;;11.66;100.00;99936.41;6009208;23;20181;-76
2023/08/11 01:57:46;;;;;;;3.00;2.80;;;;;;;11.66;100.00;99930.22;6010282;23;20168;-77
2023/08/11 02:00:25;;;;;;;4.17;2.70;;;;;;;11.65;100.00;99931.25;5988092;23;20175;-80
2023/08/11 02:02:52;;;;;;;3.00;2.70;;;;;;;11.61;100.00;99928.19;6008867;23;20244;-77
2023/08/11 02:05:19;;;;;;;2.90;2.70;;;;;;;11.61;100.00;99935.41;6008976;23;20255;-77
2023/08/11 02:07:46;;;;;;;2.73;2.50;;;;;;;11.57;100.00;99924.28;6008889;23;20237;-78
2023/08/11 02:10:13;;;;;;;3.03;2.83;;;;;;;11.54;100.00;99930.09;6010474;23;20227;-77
2023/08/11 02:12:40;;;;;;;3.00;2.80;;;;;;;11.53;100.00;99931.13;6010277;23;20164;-77
2023/08/11 02:15:07;;;;;;;2.70;2.50;;;;;;;11.47;100.00;99930.16;6008631;23;20693;-77
2023/08/11 02:17:34;;;;;;;3.10;2.80;;;;;;;11.47;100.00;99932.84;6010465;23;20220;-79
2023/08/11 02:20:16;;;;;;;2.90;2.60;;;;;;;11.47;100.00;99934.69;6009074;23;20568;-78
2023/08/11 02:22:44;;;;;;;2.83;2.63;;;;;;;11.48;100.00;99933.63;6010654;23;20183;-77
2023/08/11 02:25:10;;;;;;;2.80;2.60;;;;;;;11.47;100.00;99932.00;6010591;23;20626;-78
2023/08/11 02:27:37;;;;;;;2.80;2.60;;;;;;;11.46;100.00;99935.72;6010584;23;20213;-77
2023/08/11 02:30:06;;;;;;;2.90;2.37;;;;;;;11.44;100.00;99933.25;6009190;23;20562;-78
2023/08/11 02:32:33;;;;;;;2.80;2.60;;;;;;;11.40;100.00;99933.91;6030652;23;20535;-77
2023/08/11 02:35:00;;;;;;;2.87;2.67;;;;;;;11.39;100.00;99935.75;5990653;23;20175;-78
2023/08/11 02:37:27;;;;;;;2.97;2.70;;;;;;;11.37;100.00;99937.03;6039733;23;20167;-78
2023/08/11 02:39:53;;;;;;;3.03;2.70;;;;;;;11.40;100.00;99940.09;6038757;23;20179;-78
2023/08/11 02:42:20;;;;;;;3.13;2.83;;;;;;;11.38;100.00;99941.38;6014081;23;20172;-77
2023/08/11 02:44:48;;;;;;;2.80;2.50;;;;;;;11.36;100.00;99936.22;6037076;23;20299;-77
2023/08/11 02:47:16;;;;;;;3.00;2.70;;;;;;;11.31;100.00;99935.22;6013552;23;20212;-77
2023/08/11 02:49:43;;;;;;;2.80;2.60;;;;;;;11.31;100.00;99937.91;6013623;23;20172;-76
2023/08/11 02:52:11;;;;;;;3.17;2.97;;;;;;;11.31;100.00;99943.25;6039697;23;20167;-78
2023/08/11 02:54:38;;;;;;;3.00;2.80;;;;;;;11.28;100.00;99941.03;5992783;23;20503;-78
2023/08/11 02:57:05;;;;;;;3.20;2.90;;;;;;;11.26;100.00;99945.75;6041218;23;20217;-78
2023/08/11 02:59:32;;;;;;;3.53;2.50;;;;;;;11.24;100.00;99939.81;6041698;23;20194;-78
2023/08/11 03:01:59;;;;;;;2.53;2.40;;;;;;;11.24;100.00;99939.81;6041866;23;20169;-79
2023/08/11 03:04:25;;;;;;;3.00;2.80;;;;;;;11.21;100.00;99949.09;6041780;23;20168;-78
2023/08/11 03:06:52;;;;;;;2.77;2.57;;;;;;;11.22;100.00;99940.03;6016837;23;20224;-77
2023/08/11 03:09:19;;;;;;;2.87;2.60;;;;;;;11.19;100.00;99940.47;6041559;23;20213;-78
2023/08/11 03:11:46;;;;;;;3.13;2.83;;;;;;;11.19;100.00;99937.78;6041425;23;20178;-79
2023/08/11 03:14:12;;;;;;;3.23;2.93;;;;;;;11.15;100.00;99935.75;6041222;23;20186;-78
2023/08/11 03:16:39;;;;;;;2.80;2.60;;;;;;;11.15;100.00;99941.09;6016021;23;20226;-78
2023/08/11 03:19:07;;;;;;;2.80;2.60;;;;;;;11.14;100.00;99939.47;6015895;23;20240;-79
2023/08/11 03:21:33;;;;;;;2.90;2.70;;;;;;;11.15;100.00;99946.47;6041109;23;20172;-78
2023/08/11 03:24:00;;;;;;;2.60;2.40;;;;;;;11.11;100.00;99946.06;6016322;23;20171;-79
2023/08/11 03:26:27;;;;;;;2.80;2.60;;;;;;;11.05;100.00;99936.22;6016238;23;20195;-79
2023/08/11 03:28:54;;;;;;;2.80;2.60;;;;;;;11.10;100.00;99949.81;6039721;23;20600;-78
2023/08/11 03:31:22;;;;;;;2.73;2.53;;;;;;;11.09;100.00;99945.47;6010814;23;20208;-79
2023/08/11 03:33:51;;;;;;;6.10;3.00;;;;;;;11.04;100.00;99942.59;6012965;23;20598;-79
2023/08/11 03:36:17;;;;;;;3.03;2.60;;;;;;;11.03;100.00;99946.31;6011511;23;20522;-78
2023/08/11 03:38:46;;;;;;;3.20;2.50;;;;;;;11.01;100.00;99940.38;6011234;23;20178;-78
2023/08/11 03:41:13;;;;;;;2.90;2.70;;;;;;;10.98;100.00;99955.00;6011669;23;20172;-79
2023/08/11 03:43:39;;;;;;;3.27;2.57;;;;;;;10.97;100.00;99956.03;6011770;23;20191;-79
2023/08/11 03:46:06;;;;;;;3.20;2.90;;;;;;;11.01;100.00;99959.13;6013285;23;20174;-79
2023/08/11 03:48:35;;;;;;;5.03;2.73;;;;;;;11.00;100.00;99962.84;6011844;23;20202;-78
2023/08/11 03:51:02;;;;;;;3.33;2.93;;;;;;;11.06;100.00;99970.00;5988546;23;20234;-79
2023/08/11 03:53:30;;;;;;;2.70;2.50;;;;;;;11.08;100.00;99962.59;6035371;23;20175;-78
2023/08/11 03:55:57;;;;;;;3.00;2.70;;;;;;;11.09;100.00;99969.59;6012752;23;20496;-79
2023/08/11 03:58:26;;;;;;;2.93;2.73;;;;;;;11.17;100.00;99972.03;6010698;23;20576;-77
2023/08/11 04:00:55;;;;;;;3.33;2.50;;;;;;;11.45;100.00;99974.31;6010808;23;20226;-77
2023/08/11 04:03:22;;;;;;;2.77;2.50;;;;;;;11.73;100.00;99974.78;6010726;23;20199;-77
2023/08/11 04:05:49;;;;;;;2.70;2.50;;;;;;;11.81;100.00;99982.53;6010627;23;20228;-77
2023/08/11 04:08:16;;;;;;;3.00;2.77;;;;;;;11.78;100.00;99974.13;6012183;23;20191;-77
2023/08/11 04:10:43;;;;;;;3.00;2.80;;;;;;;11.76;100.00;99982.38;6012191;23;20169;-78
2023/08/11 04:13:10;;;;;;;2.83;2.63;;;;;;;11.71;100.00;99976.00;6012122;23;20509;-78
2023/08/11 04:15:38;;;;;;;2.87;2.67;;;;;;;11.67;100.00;99982.81;6011956;23;20175;-77
2023/08/11 04:18:05;;;;;;;3.30;3.00;;;;;;;11.69;100.00;99981.59;6010582;23;20569;-78
2023/08/11 04:20:33;;;;;;;2.83;2.63;;;;;;;11.66;100.00;99982.03;6010506;23;20192;-78
2023/08/11 04:23:01;;;;;;;5.80;3.00;;;;;;;11.63;100.00;99989.69;6010528;23;20180;-78
2023/08/11 04:25:28;;;;;;;3.03;2.60;;;;;;;11.67;100.00;99994.38;6010824;23;20259;-77
2023/08/11 04:27:59;;;;;;;2.60;2.40;;;;;;;11.70;100.00;99993.16;6010374;23;20203;-77
2023/08/11 04:30:26;;;;;;;3.10;2.90;;;;;;;11.79;100.00;99997.25;6010515;23;20200;-78
2023/08/11 04:32:53;;;;;;;3.43;2.43;;;;;;;11.86;100.00;100003.38;6010362;23;20233;-77
2023/08/11 04:35:21;;;;;;;3.27;3.00;;;;;;;11.90;100.00;99994.66;6010613;23;20177;-77
2023/08/11 04:37:49;;;;;;;3.10;2.67;;;;;;;12.07;100.00;99999.47;6010298;23;20177;-77
2023/08/11 04:40:18;;;;;;;3.20;2.60;;;;;;;12.18;100.00;100004.94;6009930;23;20198;-78
2023/08/11 04:42:47;;;;;;;3.20;2.60;;;;;;;12.33;100.00;100002.75;6011241;23;20168;-77
2023/08/11 04:45:19;;;;;;;3.80;2.80;;;;;;;12.49;100.00;100004.03;5986813;23;20190;-78
2023/08/11 04:47:46;;;;;;;3.60;2.60;;;;;;;12.63;100.00;100000.16;6009281;23;20252;-77
2023/08/11 04:50:19;;;;;;;4.77;2.83;;;;;;;12.80;100.00;100008.44;6011042;23;20153;-77
2023/08/11 04:52:48;;;;;;;2.83;2.50;;;;;;;12.93;100.00;100007.44;6032814;23;20221;-77
2023/08/11 04:55:15;;;;;;;2.90;2.60;;;;;;;13.08;100.00;99997.94;6010737;23;20168;-76
2023/08/11 04:57:43;;;;;;;2.90;2.70;;;;;;;13.23;100.00;100001.09;6009340;23;20196;-77
2023/08/11 05:00:14;;;;;;;3.30;2.70;;;;;;;13.36;100.00;100000.09;6008902;23;20174;-78
2023/08/11 05:02:44;;;;;;;2.50;2.30;;;;;;;13.52;100.00;100012.91;6010854;23;20161;-78
2023/08/11 05:05:11;;;;;;;2.60;2.40;;;;;;;13.67;100.00;100007.06;6009545;23;20221;-77
2023/08/11 05:07:37;;;;;;;2.90;2.63;;;;;;;13.80;100.00;100017.66;6011072;23;20193;-77
2023/08/11 05:10:05;;;;;;;2.87;2.67;;;;;;;13.94;100.00;100013.72;6010783;23;20167;-78
2023/08/11 05:12:31;;;;;;;2.60;2.40;;;;;;;14.07;100.00;100015.34;6010844;23;20166;-78
2023/08/11 05:14:58;;;;;;;4.70;2.83;;;;;;;14.19;100.00;100016.19;6009233;23;20202;-78
2023/08/11 05:17:25;;;;;;;2.17;2.07;;;;;;;14.36;100.00;100021.72;6010599;23;20219;-77
2023/08/11 05:19:51;;;;;;;2.23;2.10;;;;;;;14.51;100.00;100025.56;6010491;23;20257;-78
2023/08/11 05:22:18;;;;;;;3.67;2.50;;;;;;;14.64;100.00;100023.72;6010848;23;20174;-78
2023/08/11 05:24:45;;;;;;;2.50;2.30;;;;;;;14.78;100.00;100031.31;6010781;23;20181;-77
2023/08/11 05:27:12;;;;;;;2.53;2.33;;;;;;;14.93;100.00;100030.81;6010564;23;20246;-78
2023/08/11 05:29:38;;;;;;;2.90;2.40;;;;;;;15.07;100.00;100031.38;6009317;23;20186;-77
2023/08/11 05:32:05;;;;;;;2.57;2.37;;;;;;;15.20;100.00;100040.00;6021317;23;20250;-78
2023/08/11 05:34:32;;;;;;;2.83;2.40;;;;;;;15.33;100.00;100033.50;6038899;23;20170;-77
2023/08/11 05:36:59;;;;;;;2.40;2.20;;;;;;;15.50;100.00;100030.84;6039032;23;20162;-78
2023/08/11 05:39:26;;;;;;;2.93;2.30;;;;;;;15.61;100.00;100038.94;6037552;23;20193;-76
2023/08/11 05:41:53;;;;;;;2.50;2.30;;;;;;;15.75;100.00;100037.56;6038108;23;20655;-78
2023/08/11 05:44:19;;;;;;;3.23;2.57;;;;;;;15.89;100.00;100038.06;6038728;23;20181;-78
2023/08/11 05:46:47;;;;;;;2.50;2.30;;;;;;;16.05;100.00;100048.06;6038993;23;20166;-79
2023/08/11 05:49:13;;;;;;;2.20;2.10;;;;;;;16.13;100.00;100042.28;6038887;23;20273;-79
2023/08/11 05:51:40;;;;;;;2.20;2.10;;;;;;;16.27;100.00;100054.41;6039063;23;20166;-78
2023/08/11 05:54:07;;;;;;;2.40;2.20;;;;;;;16.45;100.00;100053.31;6038706;23;20174;-79
2023/08/11 05:56:33;;;;;;;2.50;2.30;;;;;;;16.57;100.00;100051.31;6038726;23;20219;-78
2023/08/11 05:59:00;;;;;;;2.47;2.27;;;;;;;16.71;100.00;100043.69;6038561;23;20170;-79
2023/08/11 06:01:27;;;;;;;2.60;2.40;;;;;;;16.87;100.00;100050.97;6038906;23;20166;-78
2023/08/11 06:03:53;;;;;;;2.70;2.50;;;;;;;17.02;100.00;100050.34;6013878;23;20166;-79
2023/08/11 06:06:20;;;;;;;3.63;2.20;;;;;;;17.10;100.00;100053.44;6038426;23;20247;-80
2023/08/11 06:08:47;;;;;;;2.40;2.20;;;;;;;17.22;100.00;100049.78;6034457;23;20674;-79
2023/08/11 06:11:14;;;;;;;3.67;2.03;;;;;;;17.33;100.00;100056.94;6035991;23;20241;-79
2023/08/11 06:13:41;;;;;;;2.40;2.20;;;;;;;17.45;100.00;100060.34;6036026;23;20174;-78
2023/08/11 06:16:08;;;;;;;2.60;2.10;;;;;;;17.58;100.00;100057.22;6010860;23;20178;-79
2023/08/11 06:18:35;;;;;;;2.60;2.13;;;;;;;17.66;100.00;100047.84;6036153;23;20246;-79
2023/08/11 06:21:04;;;;;;;2.43;2.23;;;;;;;17.79;100.00;100050.16;6010778;23;20176;-80
2023/08/11 06:23:31;;;;;;;2.43;2.03;;;;;;;17.89;100.00;100051.06;6035918;23;20170;-77
2023/08/11 06:25:58;;;;;;;2.23;2.03;;;;;;;17.99;100.00;100051.16;6037444;23;20609;-78
2023/08/11 06:28:25;;;;;;;3.17;2.50;;;;;;;18.15;100.00;100062.16;6038242;23;20655;-77
2023/08/11 06:30:51;;;;;;;2.97;2.40;;;;;;;18.26;100.00;100069.28;6039009;23;20912;-77
2023/08/11 06:33:19;;;;;;;2.47;2.27;;;;;;;18.34;100.00;100066.88;6039751;23;20230;-77
2023/08/11 06:35:46;;;;;;;3.00;2.17;;;;;;;18.42;100.00;100071.84;6039442;23;20171;-77
2023/08/11 06:38:13;;;;;;;2.40;2.20;;;;;;;18.57;100.00;100079.28;6012905;23;20179;-75
2023/08/11 06:40:39;;;;;;;2.10;2.00;;;;;;;18.70;100.00;100078.84;6038959;23;20211;-79
2023/08/11 06:43:06;;;;;;;2.20;2.00;;;;;;;18.81;100.00;100075.09;6039453;23;20210;-76
2023/08/11 06:45:33;;;;;;;2.30;2.10;;;;;;;18.93;100.00;100077.63;6039189;23;20614;-77
2023/08/11 06:48:00;;;;;;;2.20;2.00;;;;;;;19.03;100.00;100076.88;6039228;23;20613;-76
2023/08/11 06:50:27;;;;;;;5.50;2.47;;;;;;;18.92;100.00;100068.66;6039149;23;20216;-77
2023/08/11 06:52:54;;;;;;;2.53;2.00;;;;;;;19.09;100.00;100073.06;6039152;23;20622;-76
2023/08/11 06:55:24;;;;;;;5.30;2.10;;;;;;;19.18;100.00;100072.31;6038649;23;20157;-77
2023/08/11 06:57:51;;;;;;;2.17;2.07;;;;;;;19.32;100.00;100070.75;6039162;23;20225;-77
2023/08/11 07:00:18;;;;;;;4.70;2.37;;;;;;;19.51;100.00;100083.88;6038973;23;20173;-78
2023/08/11 07:02:45;;;;;;;2.17;2.00;;;;;;;19.60;100.00;100079.53;6038959;23;20169;-77
2023/08/11 07:05:12;;;;;;;2.20;2.00;;;;;;;19.72;100.00;100080.97;6038351;23;20693;-77
2023/08/11 07:07:39;;;;;;;3.43;2.20;;;;;;;19.84;100.00;100086.13;6039350;23;20223;-76
2023/08/11 07:10:06;;;;;;;3.40;1.90;;;;;;;19.95;100.00;100081.53;6038639;23;20193;-77
2023/08/11 07:12:32;;;;;;;2.70;2.10;;;;;;;20.04;100.00;100075.28;6039202;23;20174;-76
2023/08/11 07:14:59;;;;;;;2.30;2.10;;;;;;;20.17;100.00;100084.81;6039173;23;20181;-76
2023/08/11 07:17:26;;;;;;;2.33;2.07;;;;;;;20.34;100.00;100082.69;6038698;23;20168;-77
2023/08/11 07:19:53;;;;;;;2.30;2.10;;;;;;;20.43;100.00;100074.78;6038851;23;20237;-79
2023/08/11 07:22:19;;;;;;;3.40;2.20;;;;;;;20.54;100.00;100077.22;6039169;23;20165;-76
2023/08/11 07:24:46;;;;;;;2.63;2.20;;;;;;;20.69;100.00;100075.56;6038581;23;20248;-77
2023/08/11 07:27:13;;;;;;;3.23;2.20;;;;;;;20.72;100.00;100067.66;6038508;23;20165;-77
2023/08/11 07:29:42;;;;;;;3.73;2.13;;;;;;;20.86;100.00;100071.44;6038513;23;20192;-78
2023/08/11 07:32:09;;;;;;;3.30;2.13;;;;;;;20.95;100.00;100077.16;6038510;23;20190;-77
2023/08/11 07:34:38;;;;;;;3.07;2.43;;;;;;;21.06;100.00;100071.38;6038220;23;20172;-80
2023/08/11 07:37:05;;;;;;;2.40;2.20;;;;;;;21.05;100.00;100071.66;6038949;23;20170;-78
2023/08/11 07:39:32;;;;;;;5.47;2.45;;;;;;;21.09;100.00;100078.97;6038754;23;20176;-79
2023/08/11 07:42:02;;;;;;;5.93;2.33;;;;;;;21.20;100.00;100081.72;6037259;23;20190;-78
2023/08/11 07:44:30;;;;;;;2.30;2.10;;;;;;;21.30;100.00;100076.22;6039092;23;20587;-77
2023/08/11 07:46:57;;;;;;;3.50;2.15;;;;;;;21.42;100.00;100074.78;6038971;23;20169;-78
2023/08/11 07:49:24;;;;;;;4.65;2.40;;;;;;;21.53;100.00;100067.38;6037886;23;20196;-76
2023/08/11 07:51:51;;;;;;;2.65;2.03;;;;;;;21.65;100.00;100072.53;6038737;23;20623;-76
2023/08/11 07:54:18;;;;;;;2.33;2.13;;;;;;;21.74;100.00;100070.81;6038853;23;20984;-77
2023/08/11 07:56:44;;;;;;;3.30;2.22;;;;;;;21.82;100.00;100072.94;6038738;23;20173;-79
2023/08/11 07:59:11;;;;;;;5.75;2.42;;;;;;;21.86;100.00;100071.28;6038672;23;20170;-77
2023/08/11 08:01:38;;;;;;;4.07;2.33;;;;;;;22.03;100.00;100070.91;6038878;23;20162;-76
2023/08/11 08:04:05;;;;;;;2.45;2.10;;;;;;;22.15;100.00;100074.09;6039059;23;20234;-77
2023/08/11 08:06:32;;;;;;;2.63;2.42;;;;;;;22.20;100.00;100066.69;6038669;23;20185;-75
2023/08/11 08:08:58;;;;;;;2.53;2.30;;;;;;;22.30;100.00;100071.25;6038807;23;20217;-77
2023/08/11 08:11:26;;;;;;;2.42;2.15;;;;;;;22.35;100.00;100071.19;6038095;23;20162;-77
2023/08/11 08:13:52;;;;;;;2.85;2.35;;;;;;;22.47;100.00;100063.47;6038732;23;20166;-76
2023/08/11 08:16:19;;;;;;;2.20;2.10;;;;;;;22.47;100.00;100068.91;6038200;23;20169;-77
2023/08/11 08:18:46;;;;;;;5.93;2.15;;;;;;;22.56;100.00;100067.19;6038440;23;20546;-76
2023/08/11 08:21:12;;;;;;;3.17;2.20;;;;;;;22.33;100.00;100074.22;6037872;23;20685;-76
2023/08/11 08:23:39;;;;;;;2.65;2.30;;;;;;;22.41;100.00;100067.31;6038141;23;20164;-77
2023/08/11 08:26:07;;;;;;;5.50;2.20;;;;;;;22.51;100.00;100064.50;6038227;23;20515;-77
2023/08/11 08:28:33;;;;;;;2.75;2.13;;;;;;;22.58;100.00;100067.72;6038731;23;20174;-76
2023/08/11 08:31:00;;;;;;;2.20;2.00;;;;;;;22.70;100.00;100067.34;6037501;23;20193;-77
2023/08/11 08:33:27;;;;;;;2.55;1.95;;;;;;;22.78;100.00;100063.97;6038515;23;20156;-76
2023/08/11 08:35:54;;;;;;;2.15;2.03;;;;;;;22.58;100.00;100066.91;6038075;23;20177;-75
2023/08/11 08:38:20;;;;;;;3.38;1.98;;;;;;;22.26;100.00;100057.34;6038507;23;20185;-75
2023/08/11 08:40:47;;;;;;;2.20;1.95;;;;;;;22.23;100.00;100060.66;6037850;23;20182;-75
2023/08/11 08:43:16;;;;;;;2.40;2.20;;;;;;;22.47;100.00;100065.38;6013494;23;20511;-77
2023/08/11 08:45:43;;;;;;;2.95;2.00;;;;;;;22.56;100.00;100061.72;6013444;23;20630;-77
2023/08/11 08:48:16;;;;;;;2.42;2.00;;;;;;;22.78;100.00;100056.59;6037471;23;20173;-77
2023/08/11 08:50:43;;;;;;;2.63;1.98;;;;;;;22.87;100.00;100059.50;6036842;23;20663;-77
2023/08/11 08:53:09;;;;;;;3.97;1.98;;;;;;;22.99;100.00;100068.13;6037877;23;20194;-77
2023/08/11 08:55:36;;;;;;;2.55;1.83;;;;;;;23.06;100.00;100067.78;6037856;23;20171;-77
2023/08/11 08:58:03;;;;;;;1.98;1.88;;;;;;;22.79;100.00;100058.25;6037965;23;20164;-77
2023/08/11 09:00:30;;;;;;;2.38;2.22;;;;;;;22.89;100.00;100068.25;6035988;23;20223;-76
2023/08/11 09:02:57;;;;;;;2.95;1.92;;;;;;;23.17;100.00;100061.91;6036769;23;20173;-78
2023/08/11 09:05:25;;;;;;;2.35;2.10;;;;;;;23.21;100.00;100057.47;6012911;23;20195;-77
2023/08/11 09:07:52;;;;;;;2.40;1.90;;;;;;;23.07;100.00;100067.50;6013221;23;20225;-77
2023/08/11 09:10:18;;;;;;;2.50;1.98;;;;;;;23.26;100.00;100065.63;6037542;23;20194;-76
2023/08/11 09:12:45;;;;;;;1.80;1.70;;;;;;;23.42;100.00;100059.97;6038142;23;20171;-76
2023/08/11 09:15:12;;;;;;;2.05;1.95;;;;;;;23.55;100.00;100065.53;6037477;23;20662;-77
2023/08/11 09:17:39;;;;;;;2.42;2.20;;;;;;;23.57;100.00;100059.75;6037834;23;20167;-76
2023/08/11 09:20:10;;;;;;;2.78;2.03;;;;;;;23.60;100.00;100059.19;6037658;23;20174;-76
2023/08/11 09:22:38;;;;;;;3.72;1.80;;;;;;;23.79;100.00;100064.66;6012877;23;20166;-77
2023/08/11 09:25:06;;;;;;;2.85;1.80;;;;;;;23.89;100.00;100062.56;6037575;23;20170;-77
2023/08/11 09:27:33;;;;;;;2.15;1.98;;;;;;;23.87;100.00;100058.53;6037851;23;20168;-77
2023/08/11 09:29:59;;;;;;;3.00;2.10;;;;;;;24.01;100.00;100054.75;6037441;23;20651;-78
2023/08/11 09:32:26;;;;;;;2.05;1.95;;;;;;;23.88;100.00;100071.91;6038135;23;20193;-76
2023/08/11 09:34:53;;;;;;;2.25;2.05;;;;;;;23.62;100.00;100067.91;6037639;23;20259;-76
2023/08/11 09:37:20;;;;;;;2.42;2.20;;;;;;;23.93;100.00;100063.63;6037803;23;20168;-76
2023/08/11 09:39:49;;;;;;;2.60;2.40;;;;;;;23.74;100.00;100054.63;6037714;23;20203;-77
2023/08/11 09:42:18;;;;;;;2.20;2.00;;;;;;;23.68;100.00;100050.31;6037639;23;20272;-77
2023/08/11 09:44:45;;;;;;;2.70;2.50;;;;;;;23.98;100.00;100046.31;6037495;23;20562;-77
2023/08/11 09:47:11;;;;;;;3.08;2.70;;;;;;;24.19;100.00;100049.56;6038080;23;20224;-77
2023/08/11 09:49:48;;;;;;;2.70;2.42;;;;;;;24.40;100.00;100048.13;6037351;23;20179;-76
2023/08/11 09:52:15;;;;;;;2.20;1.98;;;;;;;24.62;100.00;100040.03;6037936;23;20177;-77
2023/08/11 09:54:42;;;;;;;1.80;1.70;;;;;;;24.50;99.58;100048.72;6037464;23;20174;-76
2023/08/11 09:57:10;;;;;;;3.22;1.88;;;;;;;24.24;100.00;100036.59;6037509;23;20193;-76
2023/08/11 09:59:38;;;;;;;2.00;1.90;;;;;;;24.53;97.14;100045.41;6012529;23;20166;-76
2023/08/11 10:02:06;;;;;;;3.25;2.20;;;;;;;24.58;100.00;100040.94;6012657;23;20169;-76
2023/08/11 10:04:38;;;;;;;2.05;1.95;;;;;;;24.72;95.72;100039.84;6037419;23;20200;-77
2023/08/11 10:07:10;;;;;;;3.55;1.95;;;;;;;24.91;98.89;100034.31;6037541;23;20244;-76
2023/08/11 10:09:37;;;;;;;1.83;1.73;;;;;;;24.86;94.98;100029.75;6012545;23;20180;-77
2023/08/11 10:12:05;;;;;;;3.08;1.83;;;;;;;25.00;91.21;100035.22;6037134;23;20172;-76
2023/08/11 10:14:34;;;;;;;3.53;2.00;;;;;;;25.21;91.98;100028.19;6012562;23;20246;-77
2023/08/11 10:17:01;;;;;;;1.88;1.77;;;;;;;25.37;90.24;100021.25;6037048;23;20165;-75
2023/08/11 10:19:28;;;;;;;1.90;1.80;;;;;;;25.53;88.10;100020.91;6012643;23;20558;-79
2023/08/11 10:21:55;;;;;;;2.45;2.00;;;;;;;25.56;88.02;100015.66;6036669;23;20554;-77
2023/08/11 10:24:24;;;;;;;1.90;1.80;;;;;;;25.68;85.18;100013.19;6037163;23;20248;-76
2023/08/11 10:26:51;;;;;;;3.63;2.42;;;;;;;25.76;84.58;100008.88;6036895;23;20188;-79
2023/08/11 10:29:18;;;;;;;1.70;1.60;;;;;;;25.89;82.25;100004.47;6012231;23;20193;-76
2023/08/11 10:31:56;;;;;;;2.75;1.90;;;;;;;25.98;81.13;100011.66;6001265;23;20222;-76
2023/08/11 10:34:24;;;;;;;2.80;1.60;;;;;;;26.05;78.88;100011.19;6008823;23;20155;-76
2023/08/11 10:36:55;;;;;;;1.98;1.85;;;;;;;25.92;77.06;100009.31;6008408;23;20297;-78
2023/08/11 10:39:23;;;;;;;2.45;2.00;;;;;;;25.94;75.03;100010.66;6008974;23;20159;-76
2023/08/11 10:41:50;;;;;;;1.90;1.67;;;;;;;25.48;74.87;100008.13;6008006;23;20266;-76
2023/08/11 10:44:20;;;;;;;2.17;2.00;;;;;;;25.69;73.38;100014.81;6008583;23;20499;-75
2023/08/11 10:46:48;;;;;;;2.00;1.80;;;;;;;25.69;74.83;100006.56;6008147;23;20222;-75
2023/08/11 10:49:14;;;;;;;3.58;1.50;;;;;;;25.85;73.10;100004.25;6007134;23;20210;-75
2023/08/11 10:51:41;;;;;;;1.55;1.45;;;;;;;25.97;70.68;100007.28;6005544;23;20167;-76
2023/08/11 10:54:11;;;;;;;1.60;1.50;;;;;;;26.11;70.35;99997.03;6009272;23;20222;-75
2023/08/11 10:56:40;;;;;;;1.83;1.67;;;;;;;26.28;70.00;99997.16;6006569;23;20199;-77
2023/08/11 10:59:17;;;;;;;2.40;1.83;;;;;;;26.54;71.07;99997.31;6007068;23;20163;-74
2023/08/11 11:01:46;;;;;;;1.75;1.65;;;;;;;26.61;72.68;99997.66;6007702;23;20159;-75
2023/08/11 11:04:14;;;;;;;1.80;1.70;;;;;;;26.76;71.24;99993.66;6009070;23;20166;-77
2023/08/11 11:06:43;;;;;;;2.40;1.80;;;;;;;26.79;69.24;99993.03;6008855;23;20170;-76
2023/08/11 11:09:11;;;;;;;2.25;1.60;;;;;;;26.48;68.93;99993.06;6007353;23;20166;-77
2023/08/11 11:11:38;;;;;;;1.70;1.60;;;;;;;26.50;64.82;99985.31;6004416;23;20171;-77
2023/08/11 11:14:06;;;;;;;1.73;1.60;;;;;;;26.53;63.52;99997.63;6008402;23;20178;-77
2023/08/11 11:16:33;;;;;;;2.70;1.60;;;;;;;26.51;67.82;99995.16;6010293;23;20230;-75
2023/08/11 11:19:01;;;;;;;2.67;1.70;;;;;;;26.52;62.52;99991.31;6010538;23;20178;-76
2023/08/11 11:21:28;;;;;;;1.67;1.58;;;;;;;26.68;62.19;99997.19;5985955;23;20171;-75
2023/08/11 11:23:55;;;;;;;1.88;1.75;;;;;;;26.70;61.49;99992.19;6010567;23;20170;-76